• Join FlightAware (Why Join?)
  • Login
  • US Flag 
08:44PM EST


 

Airport Tracker/Info


-or-


 

Live Flight TrackerFlight Track Log ✈ TRS501 ✈ 29-Apr-2013 ✈ KATL - KBUF

Flight Track Log - Related Links

Times and Time Zones

All times are in EDT time to prevent confusion due to time zone crossing. See the TRS501 flight status page for this flight to view local times or setup timezone preferences in your user account.

Time Position Orientation Groundspeed Altitude Reporting Facility
EDT Latitude Longitude Course Direction KTS MPH feet Rate Location/Type
09:37AM 33.6500 -84.3667 76° East 187 215 2,500  Level Atlanta TRACON
09:38AM 33.6667 -84.2833 76° East 269 310 5,700 3,300 Climbing Atlanta TRACON
09:39AM 33.7000 -84.2000 64° Northeast 299 344 9,200 2,100 Climbing Atlanta TRACON
09:40AM 33.7833 -84.1833 North 299 344 10,000 660 Climbing Atlanta TRACON
09:41AM 33.9025 -84.2364 340° North 308 354 11,100 1,680 Climbing Atlanta Center
09:42AM 33.9881 -84.2792 337° Northwest 308 354 14,600 3,300 Climbing Atlanta Center
09:43AM 34.0944 -84.2797 360° North 328 377 17,800 2,940 Climbing Atlanta Center
09:44AM 34.1947 -84.2800 360° North 382 440 20,500 2,700 Climbing Atlanta Center
09:45AM 34.3033 -84.2778 North 387 445 23,200 2,400 Climbing Atlanta Center
09:46AM 34.4286 -84.2503 10° North 400 460 25,300 2,040 Climbing Atlanta Center
09:47AM 34.5497 -84.2228 11° North 424 488 27,300 2,040 Climbing Atlanta Center
09:48AM 34.6686 -84.1928 12° North 443 510 29,400 1,800 Climbing Atlanta Center
09:49AM 34.7939 -84.1653 10° North 443 510 31,000 780 Climbing Atlanta Center
09:50AM 34.9233 -84.1350 11° North 454 522 31,000  Level Atlanta Center
09:51AM 35.0486 -84.1047 11° North 454 522 31,000 600 Level Atlanta Center
09:52AM 35.1758 -84.0744 11° North 454 522 32,300 1,440 Climbing Atlanta Center
09:53AM 35.2989 -84.0439 11° North 454 522 33,900 1,260 Climbing Atlanta Center
09:54AM 35.4261 -84.0133 11° North 449 517 34,900 1,440 Climbing Atlanta Center
09:55AM 35.5472 -83.9825 12° North 449 517 36,800 1,620 Climbing Atlanta Center
09:56AM 35.6681 -83.9544 11° North 449 517 38,200 960 Climbing Atlanta Center
09:57AM 35.7892 -83.9236 12° North 449 517 38,800 360 Climbing Atlanta Center
09:58AM 35.9122 -83.8875 13° North 449 517 39,000 60 Climbing Atlanta Center
10:00AM 36.1417 -83.7428 27° Northeast 459 528 39,000  Level Indianapolis Center
10:01AM 36.2567 -83.6731 26° Northeast 459 528 39,000  Level Indianapolis Center
10:02AM 36.3692 -83.6000 28° Northeast 458 527 39,000  Level Indianapolis Center
10:04AM 36.4842 -83.5275 27° Northeast 462 532 39,000  Level Indianapolis Center
10:05AM 36.6122 -83.4450 27° Northeast 463 533 39,000  Level Indianapolis Center
10:06AM 36.7269 -83.3708 27° Northeast 462 532 39,000  Level Indianapolis Center
10:07AM 36.8417 -83.2975 27° Northeast 461 531 39,000  Level Indianapolis Center
10:08AM 36.9572 -83.2219 28° Northeast 463 533 39,000  Level Indianapolis Center
10:09AM 37.0717 -83.1475 27° Northeast 458 527 39,000  Level Indianapolis Center
10:10AM 37.1853 -83.0725 28° Northeast 457 526 39,000  Level Indianapolis Center
10:11AM 37.3164 -82.9867 27° Northeast 453 521 39,000  Level Indianapolis Center
10:12AM 37.4286 -82.9119 28° Northeast 454 522 39,000  Level Indianapolis Center
10:13AM 37.5406 -82.8394 27° Northeast 450 518 39,000  Level Indianapolis Center
10:14AM 37.6525 -82.7644 28° Northeast 452 520 39,000  Level Indianapolis Center
10:15AM 37.7636 -82.6889 28° Northeast 451 519 39,000  Level Indianapolis Center
10:16AM 37.8758 -82.6150 27° Northeast 453 521 39,000  Level Indianapolis Center
10:17AM 38.0072 -82.5261 28° Northeast 456 525 39,000  Level Indianapolis Center
10:18AM 38.1194 -82.4519 27° Northeast 455 524 39,000  Level Indianapolis Center
10:19AM 38.2167 -82.3850 28° Northeast 453 521 39,000  Level Indianapolis Center
10:20AM 38.3503 -82.2939 28° Northeast 453 521 39,000  Level Indianapolis Center
10:21AM 38.4611 -82.2178 28° Northeast 451 519 39,000  Level Indianapolis Center
10:22AM 38.5731 -82.1419 28° Northeast 452 520 39,000  Level Indianapolis Center
10:23AM 38.6836 -82.0653 28° Northeast 449 517 39,000  Level Indianapolis Center
10:24AM 38.7964 -81.9889 28° Northeast 452 520 39,000  Level Indianapolis Center
10:25AM 38.9097 -81.9106 28° Northeast 456 525 39,000  Level Indianapolis Center
10:26AM 39.0217 -81.8328 28° Northeast 454 522 39,000  Level Indianapolis Center
10:27AM 39.1342 -81.7547 28° Northeast 456 525 39,000  Level Indianapolis Center
10:28AM 39.2467 -81.6753 29° Northeast 457 526 39,000  Level Indianapolis Center
10:29AM 39.3792 -81.5825 28° Northeast 450 518 39,000  Level Indianapolis Center
10:30AM 39.4892 -81.5053 28° Northeast 447 514 39,000  Level Indianapolis Center
10:31AM 39.5992 -81.4281 28° Northeast 447 514 39,000 -60 Level Indianapolis Center
10:32AM 39.7081 -81.3500 29° Northeast 446 513 38,900 -600 Descending Indianapolis Center
10:33AM 39.8233 -81.2669 29° Northeast 448 516 37,900 -1,020 Descending Cleveland Center
10:34AM 39.9322 -81.1894 29° Northeast 438 504 36,900 -960 Descending Cleveland Center
10:35AM 40.0431 -81.1119 28° Northeast 438 504 36,000 -960 Descending Cleveland Center
10:36AM 40.1475 -81.0367 29° Northeast 438 504 35,000 -960 Descending Cleveland Center
10:37AM 40.2519 -80.9558 31° Northeast 438 504 34,100 -1,260 Descending Cleveland Center
10:38AM 40.3586 -80.8828 28° Northeast 433 498 32,500 -1,560 Descending Cleveland Center
10:39AM 40.4631 -80.8069 29° Northeast 433 498 31,000 -780 Descending Cleveland Center
10:40AM 40.5528 -80.7417 29° Northeast 426 490 31,000  Level Cleveland Center
10:41AM 40.6611 -80.6597 30° Northeast 408 470 31,000  Level Cleveland Center
10:42AM 40.7614 -80.5858 29° Northeast 403 464 31,000  Level Cleveland Center
10:43AM 40.8508 -80.5200 29° Northeast 403 464 31,000 -600 Level Cleveland Center
10:44AM 40.9531 -80.4456 29° Northeast 403 464 29,900 -1,080 Descending Cleveland Center
10:45AM 41.0508 -80.3739 29° Northeast 403 464 28,900 -1,020 Descending Cleveland Center
10:46AM 41.1467 -80.3019 29° Northeast 398 458 27,900 -1,020 Descending Cleveland Center
10:47AM 41.2464 -80.2297 29° Northeast 398 458 26,900 -1,020 Descending Cleveland Center
10:48AM 41.3422 -80.1544 31° Northeast 398 458 25,900 -1,020 Descending Cleveland Center
10:49AM 41.4378 -80.0844 29° Northeast 398 458 24,900 -960 Descending Cleveland Center
10:50AM 41.5292 -80.0144 30° Northeast 393 452 24,000 -480 Descending Cleveland Center
10:51AM 41.6267 -79.9414 29° Northeast 379 436 24,000  Level Cleveland Center
10:52AM 41.7222 -79.8681 30° Northeast 379 436 24,000  Level Cleveland Center
10:53AM 41.8114 -79.8003 30° Northeast 374 430 24,000  Level Cleveland Center
10:54AM 41.9047 -79.7294 29° Northeast 374 430 24,000 -780 Level Cleveland Center
10:55AM 41.9958 -79.6611 29° Northeast 374 430 22,500 -1,800 Descending Cleveland Center
10:56AM 42.0869 -79.5900 30° Northeast 374 430 20,500 -2,040 Descending Cleveland Center
10:57AM 42.1761 -79.5214 30° Northeast 369 425 18,500 -2,040 Descending Cleveland Center
10:58AM 42.2608 -79.4553 30° Northeast 364 419 16,500 -2,040 Descending Cleveland Center
10:59AM 42.3436 -79.3892 31° Northeast 354 407 14,500 -1,980 Descending Cleveland Center
11:00AM 42.4264 -79.3258 29° Northeast 347 399 12,600 -1,860 Descending Cleveland Center
11:01AM 42.5111 -79.2594 30° Northeast 347 399 10,800 -1,320 Descending Cleveland Center
11:02AM 42.5853 -79.1986 31° Northeast 332 382 10,000 -1,260 Descending Cleveland Center
11:03AM 42.6494 -79.1492 30° Northeast 305 351 8,300 -1,620 Descending Cleveland Center
11:04AM 42.7278 -79.0853 31° Northeast 300 345 6,800 -1,440 Descending Cleveland Center
11:05AM 42.7978 -79.0325 29° Northeast 288 331 5,500 -900 Descending Cleveland Center
11:06AM 42.8617 -78.9772 32° Northeast 288 331 5,000 -600 Descending Cleveland Center
11:09AM 42.9833 -78.8333 41° Northeast 274 315 3,600 -660 Descending Buffalo TRACON
11:10AM 43.0500 -78.7667 36° Northeast 251 289 2,900 -720 Descending Buffalo TRACON
11:11AM 43.0500 -78.7000 90° East 184 212 2,200 -360 Descending Buffalo TRACON
11:12AM 43.0167 -78.6667 144° Southeast 148 170 2,200 -240 Level Buffalo TRACON
11:13AM 42.9833 -78.6667 180° South 115 132 1,800 -600 Descending Buffalo TRACON
11:14AM 42.9500 -78.7000 216° Southwest 127 146 1,100 -720 Descending Buffalo TRACON